sensor_id;sensor_type;location;lat;lon;timestamp;temperature;humidity
7814;DHT22;3952;48.364;16.022;2023-08-21T00:01:49;21.90;99.90
7814;DHT22;3952;48.364;16.022;2023-08-21T00:04:16;21.90;99.90
7814;DHT22;3952;48.364;16.022;2023-08-21T00:06:43;21.90;99.90
7814;DHT22;3952;48.364;16.022;2023-08-21T00:09:10;21.80;99.90
7814;DHT22;3952;48.364;16.022;2023-08-21T00:11:37;21.80;99.90
7814;DHT22;3952;48.364;16.022;2023-08-21T00:14:05;21.70;99.90
7814;DHT22;3952;48.364;16.022;2023-08-21T00:16:33;21.70;99.90
7814;DHT22;3952;48.364;16.022;2023-08-21T00:19:00;21.60;99.90
7814;DHT22;3952;48.364;16.022;2023-08-21T00:21:28;21.60;99.90
7814;DHT22;3952;48.364;16.022;2023-08-21T00:23:55;21.50;99.90
7814;DHT22;3952;48.364;16.022;2023-08-21T00:26:22;21.50;99.90
7814;DHT22;3952;48.364;16.022;2023-08-21T00:28:49;21.40;99.90
7814;DHT22;3952;48.364;16.022;2023-08-21T00:31:16;21.40;99.90
7814;DHT22;3952;48.364;16.022;2023-08-21T00:33:45;21.40;99.90
7814;DHT22;3952;48.364;16.022;2023-08-21T00:36:12;21.40;99.90
7814;DHT22;3952;48.364;16.022;2023-08-21T00:38:39;21.40;99.90
7814;DHT22;3952;48.364;16.022;2023-08-21T00:41:07;21.40;99.90
7814;DHT22;3952;48.364;16.022;2023-08-21T00:43:34;21.40;99.90
7814;DHT22;3952;48.364;16.022;2023-08-21T00:46:01;21.30;99.90
7814;DHT22;3952;48.364;16.022;2023-08-21T00:48:29;21.30;99.90
7814;DHT22;3952;48.364;16.022;2023-08-21T00:50:58;21.30;99.90
7814;DHT22;3952;48.364;16.022;2023-08-21T00:53:25;21.30;99.90
7814;DHT22;3952;48.364;16.022;2023-08-21T00:55:52;21.30;99.90
7814;DHT22;3952;48.364;16.022;2023-08-21T00:58:19;21.20;99.90
7814;DHT22;3952;48.364;16.022;2023-08-21T01:00:49;21.20;99.90
7814;DHT22;3952;48.364;16.022;2023-08-21T01:03:18;21.10;99.90
7814;DHT22;3952;48.364;16.022;2023-08-21T01:05:45;21.10;99.90
7814;DHT22;3952;48.364;16.022;2023-08-21T01:08:17;21.10;99.90
7814;DHT22;3952;48.364;16.022;2023-08-21T01:10:50;21.10;99.90
7814;DHT22;3952;48.364;16.022;2023-08-21T01:13:32;20.40;99.90
7814;DHT22;3952;48.364;16.022;2023-08-21T01:16:03;21.10;99.90
7814;DHT22;3952;48.364;16.022;2023-08-21T01:18:33;21.10;99.90
7814;DHT22;3952;48.364;16.022;2023-08-21T01:21:02;21.00;99.90
7814;DHT22;3952;48.364;16.022;2023-08-21T01:23:35;21.00;99.90
7814;DHT22;3952;48.364;16.022;2023-08-21T01:26:02;21.00;99.90
7814;DHT22;3952;48.364;16.022;2023-08-21T01:28:30;21.00;99.90
7814;DHT22;3952;48.364;16.022;2023-08-21T01:31:03;21.00;99.90
7814;DHT22;3952;48.364;16.022;2023-08-21T01:33:34;20.90;99.90
7814;DHT22;3952;48.364;16.022;2023-08-21T01:36:03;20.90;99.90
7814;DHT22;3952;48.364;16.022;2023-08-21T01:38:33;20.90;99.90
7814;DHT22;3952;48.364;16.022;2023-08-21T01:41:02;20.90;99.90
7814;DHT22;3952;48.364;16.022;2023-08-21T01:43:29;20.90;99.90
7814;DHT22;3952;48.364;16.022;2023-08-21T01:45:57;20.80;99.90
7814;DHT22;3952;48.364;16.022;2023-08-21T01:48:24;20.80;99.90
7814;DHT22;3952;48.364;16.022;2023-08-21T01:50:51;20.80;99.90
7814;DHT22;3952;48.364;16.022;2023-08-21T01:53:18;20.80;99.90
7814;DHT22;3952;48.364;16.022;2023-08-21T01:55:45;20.80;99.90
7814;DHT22;3952;48.364;16.022;2023-08-21T01:58:14;20.80;99.90
7814;DHT22;3952;48.364;16.022;2023-08-21T02:00:41;20.80;99.90
7814;DHT22;3952;48.364;16.022;2023-08-21T02:03:08;20.70;99.90
7814;DHT22;3952;48.364;16.022;2023-08-21T02:05:39;20.70;99.90
7814;DHT22;3952;48.364;16.022;2023-08-21T02:08:09;20.60;99.90
7814;DHT22;3952;48.364;16.022;2023-08-21T02:10:36;20.60;99.90
7814;DHT22;3952;48.364;16.022;2023-08-21T02:13:04;20.50;99.90
7814;DHT22;3952;48.364;16.022;2023-08-21T02:15:32;20.50;99.90
7814;DHT22;3952;48.364;16.022;2023-08-21T02:18:00;20.50;99.90
7814;DHT22;3952;48.364;16.022;2023-08-21T02:20:27;20.40;99.90
7814;DHT22;3952;48.364;16.022;2023-08-21T02:22:54;20.40;99.90
7814;DHT22;3952;48.364;16.022;2023-08-21T02:25:21;20.30;99.90
7814;DHT22;3952;48.364;16.022;2023-08-21T02:27:48;20.20;99.90
7814;DHT22;3952;48.364;16.022;2023-08-21T02:30:16;20.20;99.90
7814;DHT22;3952;48.364;16.022;2023-08-21T02:32:44;20.10;99.90
7814;DHT22;3952;48.364;16.022;2023-08-21T02:35:11;20.10;99.90
7814;DHT22;3952;48.364;16.022;2023-08-21T02:37:39;20.10;99.90
7814;DHT22;3952;48.364;16.022;2023-08-21T02:40:07;20.10;99.90
7814;DHT22;3952;48.364;16.022;2023-08-21T02:42:35;20.00;99.90
7814;DHT22;3952;48.364;16.022;2023-08-21T02:45:03;20.10;99.90
7814;DHT22;3952;48.364;16.022;2023-08-21T02:47:34;20.00;99.90
7814;DHT22;3952;48.364;16.022;2023-08-21T02:50:04;20.00;99.90
7814;DHT22;3952;48.364;16.022;2023-08-21T02:52:31;20.10;99.90
7814;DHT22;3952;48.364;16.022;2023-08-21T02:54:59;20.10;99.90
7814;DHT22;3952;48.364;16.022;2023-08-21T02:57:27;20.10;99.90
7814;DHT22;3952;48.364;16.022;2023-08-21T02:59:55;20.10;99.90
7814;DHT22;3952;48.364;16.022;2023-08-21T03:02:23;20.10;99.90
7814;DHT22;3952;48.364;16.022;2023-08-21T03:04:50;20.10;99.90
7814;DHT22;3952;48.364;16.022;2023-08-21T03:07:19;20.00;99.90
7814;DHT22;3952;48.364;16.022;2023-08-21T03:09:47;20.00;99.90
7814;DHT22;3952;48.364;16.022;2023-08-21T03:12:14;19.90;99.90
7814;DHT22;3952;48.364;16.022;2023-08-21T03:14:41;19.90;99.90
7814;DHT22;3952;48.364;16.022;2023-08-21T03:17:08;19.90;99.90
7814;DHT22;3952;48.364;16.022;2023-08-21T03:19:36;19.90;99.90
7814;DHT22;3952;48.364;16.022;2023-08-21T03:22:03;19.90;99.90
7814;DHT22;3952;48.364;16.022;2023-08-21T03:24:32;19.90;99.90
7814;DHT22;3952;48.364;16.022;2023-08-21T03:26:59;19.80;99.90
7814;DHT22;3952;48.364;16.022;2023-08-21T03:29:26;19.80;99.90
7814;DHT22;3952;48.364;16.022;2023-08-21T03:31:54;19.80;99.90
7814;DHT22;3952;48.364;16.022;2023-08-21T03:34:21;19.70;99.90
7814;DHT22;3952;48.364;16.022;2023-08-21T03:36:48;19.70;99.90
7814;DHT22;3952;48.364;16.022;2023-08-21T03:39:15;19.70;99.90
7814;DHT22;3952;48.364;16.022;2023-08-21T03:41:44;19.70;99.90
7814;DHT22;3952;48.364;16.022;2023-08-21T03:44:11;19.70;99.90
7814;DHT22;3952;48.364;16.022;2023-08-21T03:46:38;19.70;99.90
7814;DHT22;3952;48.364;16.022;2023-08-21T03:49:05;19.70;99.90
7814;DHT22;3952;48.364;16.022;2023-08-21T03:51:32;19.70;99.90
7814;DHT22;3952;48.364;16.022;2023-08-21T03:54:00;19.70;99.90
7814;DHT22;3952;48.364;16.022;2023-08-21T03:56:27;19.70;99.90
7814;DHT22;3952;48.364;16.022;2023-08-21T03:58:55;19.70;99.90
7814;DHT22;3952;48.364;16.022;2023-08-21T04:01:23;19.70;99.90
7814;DHT22;3952;48.364;16.022;2023-08-21T04:03:50;19.70;99.90
7814;DHT22;3952;48.364;16.022;2023-08-21T04:06:17;19.70;99.90
7814;DHT22;3952;48.364;16.022;2023-08-21T04:08:44;19.80;99.90
7814;DHT22;3952;48.364;16.022;2023-08-21T04:11:11;19.80;99.90
7814;DHT22;3952;48.364;16.022;2023-08-21T04:13:38;19.70;99.90
7814;DHT22;3952;48.364;16.022;2023-08-21T04:16:07;19.70;99.90
7814;DHT22;3952;48.364;16.022;2023-08-21T04:18:36;19.70;99.90
7814;DHT22;3952;48.364;16.022;2023-08-21T04:21:04;19.70;99.90
7814;DHT22;3952;48.364;16.022;2023-08-21T04:23:32;19.60;99.90
7814;DHT22;3952;48.364;16.022;2023-08-21T04:26:01;19.60;99.90
7814;DHT22;3952;48.364;16.022;2023-08-21T04:28:29;19.60;99.90
7814;DHT22;3952;48.364;16.022;2023-08-21T04:30:56;19.60;99.90
7814;DHT22;3952;48.364;16.022;2023-08-21T04:33:25;19.60;99.90
7814;DHT22;3952;48.364;16.022;2023-08-21T04:35:52;19.60;99.90
7814;DHT22;3952;48.364;16.022;2023-08-21T04:38:19;19.50;99.90
7814;DHT22;3952;48.364;16.022;2023-08-21T04:40:46;19.40;99.90
7814;DHT22;3952;48.364;16.022;2023-08-21T04:43:14;19.40;99.90
7814;DHT22;3952;48.364;16.022;2023-08-21T04:45:47;19.40;99.90
7814;DHT22;3952;48.364;16.022;2023-08-21T04:48:15;19.40;99.90
7814;DHT22;3952;48.364;16.022;2023-08-21T04:50:44;19.40;99.90
7814;DHT22;3952;48.364;16.022;2023-08-21T04:53:12;19.40;99.90
7814;DHT22;3952;48.364;16.022;2023-08-21T04:55:40;19.40;99.90
7814;DHT22;3952;48.364;16.022;2023-08-21T04:58:07;19.40;99.90
7814;DHT22;3952;48.364;16.022;2023-08-21T05:00:35;19.40;99.90
7814;DHT22;3952;48.364;16.022;2023-08-21T05:03:02;19.40;99.90
7814;DHT22;3952;48.364;16.022;2023-08-21T05:05:30;19.50;99.90
7814;DHT22;3952;48.364;16.022;2023-08-21T05:07:58;19.50;99.90
7814;DHT22;3952;48.364;16.022;2023-08-21T05:10:25;19.50;99.90
7814;DHT22;3952;48.364;16.022;2023-08-21T05:12:53;19.50;99.90
7814;DHT22;3952;48.364;16.022;2023-08-21T05:15:20;19.60;99.90
7814;DHT22;3952;48.364;16.022;2023-08-21T05:17:47;19.50;99.90
7814;DHT22;3952;48.364;16.022;2023-08-21T05:20:14;19.60;99.90
7814;DHT22;3952;48.364;16.022;2023-08-21T05:22:41;19.60;99.90
7814;DHT22;3952;48.364;16.022;2023-08-21T05:25:10;19.60;99.90
7814;DHT22;3952;48.364;16.022;2023-08-21T05:27:38;19.60;99.90
7814;DHT22;3952;48.364;16.022;2023-08-21T05:30:06;19.70;99.90
7814;DHT22;3952;48.364;16.022;2023-08-21T05:32:34;19.70;99.90
7814;DHT22;3952;48.364;16.022;2023-08-21T05:35:01;19.70;99.90
7814;DHT22;3952;48.364;16.022;2023-08-21T05:37:29;19.70;99.90
7814;DHT22;3952;48.364;16.022;2023-08-21T05:39:56;19.70;99.90
7814;DHT22;3952;48.364;16.022;2023-08-21T05:42:25;19.80;99.90
7814;DHT22;3952;48.364;16.022;2023-08-21T05:44:52;19.90;99.90
7814;DHT22;3952;48.364;16.022;2023-08-21T05:47:19;19.90;99.90
7814;DHT22;3952;48.364;16.022;2023-08-21T05:49:46;20.00;99.90
7814;DHT22;3952;48.364;16.022;2023-08-21T05:52:14;20.00;99.90
7814;DHT22;3952;48.364;16.022;2023-08-21T05:54:41;20.10;99.90
7814;DHT22;3952;48.364;16.022;2023-08-21T05:57:08;20.20;99.90
7814;DHT22;3952;48.364;16.022;2023-08-21T05:59:43;20.30;99.90
7814;DHT22;3952;48.364;16.022;2023-08-21T06:02:11;20.30;99.90
7814;DHT22;3952;48.364;16.022;2023-08-21T06:04:39;20.40;99.90
7814;DHT22;3952;48.364;16.022;2023-08-21T06:07:07;20.50;99.90
7814;DHT22;3952;48.364;16.022;2023-08-21T06:09:35;20.50;99.90
7814;DHT22;3952;48.364;16.022;2023-08-21T06:12:03;20.60;99.90
7814;DHT22;3952;48.364;16.022;2023-08-21T06:14:30;20.70;99.90
7814;DHT22;3952;48.364;16.022;2023-08-21T06:16:59;20.80;99.90
7814;DHT22;3952;48.364;16.022;2023-08-21T06:19:27;20.90;99.90
7814;DHT22;3952;48.364;16.022;2023-08-21T06:21:55;21.00;99.90
7814;DHT22;3952;48.364;16.022;2023-08-21T06:24:22;21.10;99.90
7814;DHT22;3952;48.364;16.022;2023-08-21T06:26:51;21.20;99.90
7814;DHT22;3952;48.364;16.022;2023-08-21T06:29:19;21.30;99.90
7814;DHT22;3952;48.364;16.022;2023-08-21T06:31:46;21.40;99.90
7814;DHT22;3952;48.364;16.022;2023-08-21T06:34:15;21.50;99.90
7814;DHT22;3952;48.364;16.022;2023-08-21T06:36:42;21.60;99.90
7814;DHT22;3952;48.364;16.022;2023-08-21T06:39:09;21.70;99.90
7814;DHT22;3952;48.364;16.022;2023-08-21T06:41:36;21.90;99.90
7814;DHT22;3952;48.364;16.022;2023-08-21T06:44:04;22.00;99.90
7814;DHT22;3952;48.364;16.022;2023-08-21T06:46:31;22.10;99.90
7814;DHT22;3952;48.364;16.022;2023-08-21T06:48:58;22.20;99.90
7814;DHT22;3952;48.364;16.022;2023-08-21T06:51:27;22.40;99.90
7814;DHT22;3952;48.364;16.022;2023-08-21T06:53:54;22.50;99.90
7814;DHT22;3952;48.364;16.022;2023-08-21T06:56:21;22.60;99.90
7814;DHT22;3952;48.364;16.022;2023-08-21T06:58:48;22.70;99.90
7814;DHT22;3952;48.364;16.022;2023-08-21T07:01:15;22.90;99.90
7814;DHT22;3952;48.364;16.022;2023-08-21T07:03:43;23.00;99.90
7814;DHT22;3952;48.364;16.022;2023-08-21T07:06:10;23.20;99.90
7814;DHT22;3952;48.364;16.022;2023-08-21T07:08:39;23.30;99.90
7814;DHT22;3952;48.364;16.022;2023-08-21T07:11:06;23.50;99.90
7814;DHT22;3952;48.364;16.022;2023-08-21T07:13:35;23.60;99.90
7814;DHT22;3952;48.364;16.022;2023-08-21T07:16:03;23.70;99.90
7814;DHT22;3952;48.364;16.022;2023-08-21T07:18:32;23.90;99.90
7814;DHT22;3952;48.364;16.022;2023-08-21T07:21:00;24.10;99.90
7814;DHT22;3952;48.364;16.022;2023-08-21T07:23:29;24.20;99.90
7814;DHT22;3952;48.364;16.022;2023-08-21T07:25:58;24.40;99.90
7814;DHT22;3952;48.364;16.022;2023-08-21T07:28:25;24.60;99.90
7814;DHT22;3952;48.364;16.022;2023-08-21T07:30:55;24.70;99.90
7814;DHT22;3952;48.364;16.022;2023-08-21T07:33:22;24.80;99.90
7814;DHT22;3952;48.364;16.022;2023-08-21T07:35:57;25.00;99.90
7814;DHT22;3952;48.364;16.022;2023-08-21T07:38:24;25.10;99.90
7814;DHT22;3952;48.364;16.022;2023-08-21T07:41:02;25.30;99.90
7814;DHT22;3952;48.364;16.022;2023-08-21T07:43:30;25.40;99.90
7814;DHT22;3952;48.364;16.022;2023-08-21T07:45:57;25.50;99.90
7814;DHT22;3952;48.364;16.022;2023-08-21T07:48:24;25.60;99.90
7814;DHT22;3952;48.364;16.022;2023-08-21T07:50:52;25.80;99.90
7814;DHT22;3952;48.364;16.022;2023-08-21T07:53:20;25.90;99.90
7814;DHT22;3952;48.364;16.022;2023-08-21T07:55:47;26.10;99.90
7814;DHT22;3952;48.364;16.022;2023-08-21T07:58:15;26.20;99.90
7814;DHT22;3952;48.364;16.022;2023-08-21T08:00:43;26.40;99.90
7814;DHT22;3952;48.364;16.022;2023-08-21T08:03:10;26.60;99.90
7814;DHT22;3952;48.364;16.022;2023-08-21T08:05:40;26.70;99.90
7814;DHT22;3952;48.364;16.022;2023-08-21T08:08:08;26.90;99.90
7814;DHT22;3952;48.364;16.022;2023-08-21T08:10:37;27.00;99.90
7814;DHT22;3952;48.364;16.022;2023-08-21T08:13:05;27.10;99.90
7814;DHT22;3952;48.364;16.022;2023-08-21T08:15:34;27.20;99.90
7814;DHT22;3952;48.364;16.022;2023-08-21T08:18:02;27.30;99.90
7814;DHT22;3952;48.364;16.022;2023-08-21T08:20:29;27.40;99.90
7814;DHT22;3952;48.364;16.022;2023-08-21T08:22:57;27.60;99.90
7814;DHT22;3952;48.364;16.022;2023-08-21T08:25:24;27.70;99.90
7814;DHT22;3952;48.364;16.022;2023-08-21T08:27:52;27.80;99.90
7814;DHT22;3952;48.364;16.022;2023-08-21T08:30:19;28.00;99.90
7814;DHT22;3952;48.364;16.022;2023-08-21T08:32:48;28.10;99.90
7814;DHT22;3952;48.364;16.022;2023-08-21T08:35:15;28.30;99.90
7814;DHT22;3952;48.364;16.022;2023-08-21T08:37:42;28.40;99.90
7814;DHT22;3952;48.364;16.022;2023-08-21T08:40:11;28.60;99.90
7814;DHT22;3952;48.364;16.022;2023-08-21T08:42:38;28.70;99.90
7814;DHT22;3952;48.364;16.022;2023-08-21T08:45:07;28.90;99.90
7814;DHT22;3952;48.364;16.022;2023-08-21T08:47:35;29.00;99.90
7814;DHT22;3952;48.364;16.022;2023-08-21T08:50:05;29.10;99.90
7814;DHT22;3952;48.364;16.022;2023-08-21T08:52:37;29.20;99.90
7814;DHT22;3952;48.364;16.022;2023-08-21T08:55:06;29.10;99.90
7814;DHT22;3952;48.364;16.022;2023-08-21T08:57:34;29.10;99.90
7814;DHT22;3952;48.364;16.022;2023-08-21T09:00:01;29.10;99.90
7814;DHT22;3952;48.364;16.022;2023-08-21T09:02:29;29.20;99.90
7814;DHT22;3952;48.364;16.022;2023-08-21T09:04:56;29.40;99.90
7814;DHT22;3952;48.364;16.022;2023-08-21T09:07:25;29.50;99.90
7814;DHT22;3952;48.364;16.022;2023-08-21T09:09:52;29.70;99.90
7814;DHT22;3952;48.364;16.022;2023-08-21T09:12:20;29.90;99.90
7814;DHT22;3952;48.364;16.022;2023-08-21T09:14:47;30.00;99.90
7814;DHT22;3952;48.364;16.022;2023-08-21T09:17:15;29.90;99.90
7814;DHT22;3952;48.364;16.022;2023-08-21T09:19:42;30.00;99.90
7814;DHT22;3952;48.364;16.022;2023-08-21T09:22:11;30.00;99.90
7814;DHT22;3952;48.364;16.022;2023-08-21T09:24:40;30.20;99.90
7814;DHT22;3952;48.364;16.022;2023-08-21T09:27:15;30.30;99.90
7814;DHT22;3952;48.364;16.022;2023-08-21T09:29:44;30.40;99.90
7814;DHT22;3952;48.364;16.022;2023-08-21T09:32:13;30.50;99.90
7814;DHT22;3952;48.364;16.022;2023-08-21T09:34:41;30.70;99.90
7814;DHT22;3952;48.364;16.022;2023-08-21T09:37:10;30.80;99.90
7814;DHT22;3952;48.364;16.022;2023-08-21T09:39:37;31.00;99.90
7814;DHT22;3952;48.364;16.022;2023-08-21T09:42:09;31.10;99.90
7814;DHT22;3952;48.364;16.022;2023-08-21T09:44:38;31.20;99.90
7814;DHT22;3952;48.364;16.022;2023-08-21T09:47:08;31.20;99.90
7814;DHT22;3952;48.364;16.022;2023-08-21T09:49:37;31.30;99.90
7814;DHT22;3952;48.364;16.022;2023-08-21T09:52:05;31.10;99.90
7814;DHT22;3952;48.364;16.022;2023-08-21T09:54:33;31.10;99.90
7814;DHT22;3952;48.364;16.022;2023-08-21T09:57:02;31.20;99.90
7814;DHT22;3952;48.364;16.022;2023-08-21T09:59:32;31.30;99.90
7814;DHT22;3952;48.364;16.022;2023-08-21T10:02:00;31.50;99.90
7814;DHT22;3952;48.364;16.022;2023-08-21T10:04:28;31.60;99.90
7814;DHT22;3952;48.364;16.022;2023-08-21T10:06:56;31.70;99.90
7814;DHT22;3952;48.364;16.022;2023-08-21T10:09:25;31.70;99.90
7814;DHT22;3952;48.364;16.022;2023-08-21T10:11:53;31.80;99.90
7814;DHT22;3952;48.364;16.022;2023-08-21T10:14:22;32.00;99.90
7814;DHT22;3952;48.364;16.022;2023-08-21T10:16:53;32.10;99.90
7814;DHT22;3952;48.364;16.022;2023-08-21T10:19:21;32.30;99.90
7814;DHT22;3952;48.364;16.022;2023-08-21T10:21:48;32.30;99.90
7814;DHT22;3952;48.364;16.022;2023-08-21T10:24:33;32.30;99.90
7814;DHT22;3952;48.364;16.022;2023-08-21T10:27:01;32.30;99.90
7814;DHT22;3952;48.364;16.022;2023-08-21T10:29:28;32.50;99.90
7814;DHT22;3952;48.364;16.022;2023-08-21T10:32:02;32.70;99.90
7814;DHT22;3952;48.364;16.022;2023-08-21T10:34:34;32.80;99.90
7814;DHT22;3952;48.364;16.022;2023-08-21T10:37:05;32.90;99.90
7814;DHT22;3952;48.364;16.022;2023-08-21T10:39:36;33.00;99.90
7814;DHT22;3952;48.364;16.022;2023-08-21T10:42:07;33.10;99.90
7814;DHT22;3952;48.364;16.022;2023-08-21T10:44:52;33.20;99.90
7814;DHT22;3952;48.364;16.022;2023-08-21T10:47:27;33.10;99.90
7814;DHT22;3952;48.364;16.022;2023-08-21T10:49:58;33.20;99.90
7814;DHT22;3952;48.364;16.022;2023-08-21T10:52:27;33.30;99.90
7814;DHT22;3952;48.364;16.022;2023-08-21T10:54:56;33.30;99.90
7814;DHT22;3952;48.364;16.022;2023-08-21T10:57:25;33.40;99.90
7814;DHT22;3952;48.364;16.022;2023-08-21T10:59:54;33.50;99.90
7814;DHT22;3952;48.364;16.022;2023-08-21T11:02:24;33.60;99.90
7814;DHT22;3952;48.364;16.022;2023-08-21T11:04:52;33.60;99.90
7814;DHT22;3952;48.364;16.022;2023-08-21T11:07:20;33.60;99.90
7814;DHT22;3952;48.364;16.022;2023-08-21T11:09:48;33.60;99.90
7814;DHT22;3952;48.364;16.022;2023-08-21T11:12:16;33.60;99.90
7814;DHT22;3952;48.364;16.022;2023-08-21T11:14:44;33.60;99.90
7814;DHT22;3952;48.364;16.022;2023-08-21T11:17:11;33.60;99.90
7814;DHT22;3952;48.364;16.022;2023-08-21T11:19:41;33.60;99.90
7814;DHT22;3952;48.364;16.022;2023-08-21T11:22:08;33.60;99.80
7814;DHT22;3952;48.364;16.022;2023-08-21T11:24:41;33.60;99.90
7814;DHT22;3952;48.364;16.022;2023-08-21T11:27:08;33.60;99.90
7814;DHT22;3952;48.364;16.022;2023-08-21T11:29:38;33.60;99.90
7814;DHT22;3952;48.364;16.022;2023-08-21T11:32:09;33.60;99.90
7814;DHT22;3952;48.364;16.022;2023-08-21T11:34:37;33.60;99.20
7814;DHT22;3952;48.364;16.022;2023-08-21T11:37:06;33.70;99.40
7814;DHT22;3952;48.364;16.022;2023-08-21T11:39:43;33.60;97.90
7814;DHT22;3952;48.364;16.022;2023-08-21T11:42:12;33.70;98.30
7814;DHT22;3952;48.364;16.022;2023-08-21T11:44:44;33.80;99.60
7814;DHT22;3952;48.364;16.022;2023-08-21T11:47:12;33.80;98.20
7814;DHT22;3952;48.364;16.022;2023-08-21T11:49:40;33.80;97.50
7814;DHT22;3952;48.364;16.022;2023-08-21T11:52:10;33.70;97.80
7814;DHT22;3952;48.364;16.022;2023-08-21T11:54:38;33.70;97.80
7814;DHT22;3952;48.364;16.022;2023-08-21T11:57:07;33.70;99.00
7814;DHT22;3952;48.364;16.022;2023-08-21T11:59:35;33.70;98.90
7814;DHT22;3952;48.364;16.022;2023-08-21T12:02:14;33.80;96.50
7814;DHT22;3952;48.364;16.022;2023-08-21T12:04:42;33.70;96.20
7814;DHT22;3952;48.364;16.022;2023-08-21T12:07:11;33.70;96.20
7814;DHT22;3952;48.364;16.022;2023-08-21T12:09:39;33.80;97.80
7814;DHT22;3952;48.364;16.022;2023-08-21T12:12:06;33.80;96.30
7814;DHT22;3952;48.364;16.022;2023-08-21T12:14:34;33.80;98.40
7814;DHT22;3952;48.364;16.022;2023-08-21T12:17:05;33.90;96.40
7814;DHT22;3952;48.364;16.022;2023-08-21T12:19:34;33.90;97.20
7814;DHT22;3952;48.364;16.022;2023-08-21T12:22:02;33.90;98.20
7814;DHT22;3952;48.364;16.022;2023-08-21T12:24:31;33.90;99.80
7814;DHT22;3952;48.364;16.022;2023-08-21T12:26:58;34.00;98.00
7814;DHT22;3952;48.364;16.022;2023-08-21T12:29:26;34.00;97.30
7814;DHT22;3952;48.364;16.022;2023-08-21T12:31:53;34.00;98.60
7814;DHT22;3952;48.364;16.022;2023-08-21T12:34:21;34.00;97.90
7814;DHT22;3952;48.364;16.022;2023-08-21T12:36:50;34.00;98.60
7814;DHT22;3952;48.364;16.022;2023-08-21T12:39:17;33.90;97.80
7814;DHT22;3952;48.364;16.022;2023-08-21T12:41:46;33.90;98.60
7814;DHT22;3952;48.364;16.022;2023-08-21T12:44:14;33.90;98.00
7814;DHT22;3952;48.364;16.022;2023-08-21T12:46:41;33.90;97.50
7814;DHT22;3952;48.364;16.022;2023-08-21T12:49:08;33.80;97.40
7814;DHT22;3952;48.364;16.022;2023-08-21T12:51:36;33.70;97.30
7814;DHT22;3952;48.364;16.022;2023-08-21T12:54:04;33.70;96.90
7814;DHT22;3952;48.364;16.022;2023-08-21T12:56:31;33.70;97.50
7814;DHT22;3952;48.364;16.022;2023-08-21T12:59:00;33.60;96.40
7814;DHT22;3952;48.364;16.022;2023-08-21T13:01:28;33.60;97.30
7814;DHT22;3952;48.364;16.022;2023-08-21T13:03:57;33.60;98.40
7814;DHT22;3952;48.364;16.022;2023-08-21T13:06:24;33.60;96.30
7814;DHT22;3952;48.364;16.022;2023-08-21T13:08:52;33.60;96.10
7814;DHT22;3952;48.364;16.022;2023-08-21T13:11:19;33.60;96.90
7814;DHT22;3952;48.364;16.022;2023-08-21T13:13:47;33.70;96.30
7814;DHT22;3952;48.364;16.022;2023-08-21T13:16:16;33.70;95.00
7814;DHT22;3952;48.364;16.022;2023-08-21T13:18:43;33.70;96.40
7814;DHT22;3952;48.364;16.022;2023-08-21T13:21:10;33.80;96.30
7814;DHT22;3952;48.364;16.022;2023-08-21T13:23:37;33.80;96.60
7814;DHT22;3952;48.364;16.022;2023-08-21T13:26:04;33.70;95.70
7814;DHT22;3952;48.364;16.022;2023-08-21T13:28:32;33.70;95.70
7814;DHT22;3952;48.364;16.022;2023-08-21T13:31:00;33.80;96.40
7814;DHT22;3952;48.364;16.022;2023-08-21T13:33:28;33.80;95.90
7814;DHT22;3952;48.364;16.022;2023-08-21T13:35:56;33.80;95.10
7814;DHT22;3952;48.364;16.022;2023-08-21T13:38:23;33.90;97.10
7814;DHT22;3952;48.364;16.022;2023-08-21T13:40:50;33.90;96.50
7814;DHT22;3952;48.364;16.022;2023-08-21T13:43:18;33.90;96.60
7814;DHT22;3952;48.364;16.022;2023-08-21T13:45:45;33.90;96.40
7814;DHT22;3952;48.364;16.022;2023-08-21T13:48:13;34.00;97.40
7814;DHT22;3952;48.364;16.022;2023-08-21T13:50:41;34.00;95.10
7814;DHT22;3952;48.364;16.022;2023-08-21T13:53:08;34.00;95.80
7814;DHT22;3952;48.364;16.022;2023-08-21T13:55:36;34.00;97.10
7814;DHT22;3952;48.364;16.022;2023-08-21T13:58:03;34.00;94.70
7814;DHT22;3952;48.364;16.022;2023-08-21T14:00:31;33.90;93.20
7814;DHT22;3952;48.364;16.022;2023-08-21T14:02:58;33.90;95.00
7814;DHT22;3952;48.364;16.022;2023-08-21T14:05:25;33.90;94.00
7814;DHT22;3952;48.364;16.022;2023-08-21T14:07:54;33.90;95.30
7814;DHT22;3952;48.364;16.022;2023-08-21T14:10:21;33.90;96.30
7814;DHT22;3952;48.364;16.022;2023-08-21T14:12:49;33.80;93.70
7814;DHT22;3952;48.364;16.022;2023-08-21T14:15:17;33.80;94.80
7814;DHT22;3952;48.364;16.022;2023-08-21T14:17:44;33.80;96.30
7814;DHT22;3952;48.364;16.022;2023-08-21T14:20:12;33.80;95.80
7814;DHT22;3952;48.364;16.022;2023-08-21T14:22:39;33.80;96.50
7814;DHT22;3952;48.364;16.022;2023-08-21T14:25:09;33.80;94.90
7814;DHT22;3952;48.364;16.022;2023-08-21T14:27:37;33.80;93.10
7814;DHT22;3952;48.364;16.022;2023-08-21T14:30:05;33.80;91.70
7814;DHT22;3952;48.364;16.022;2023-08-21T14:32:33;33.70;91.10
7814;DHT22;3952;48.364;16.022;2023-08-21T14:35:00;33.70;93.20
7814;DHT22;3952;48.364;16.022;2023-08-21T14:37:27;33.70;92.00
7814;DHT22;3952;48.364;16.022;2023-08-21T14:39:55;33.70;90.80
7814;DHT22;3952;48.364;16.022;2023-08-21T14:42:23;33.70;92.00
7814;DHT22;3952;48.364;16.022;2023-08-21T14:44:50;33.70;89.10
7814;DHT22;3952;48.364;16.022;2023-08-21T14:47:17;33.70;90.70
7814;DHT22;3952;48.364;16.022;2023-08-21T14:49:45;33.70;91.70
7814;DHT22;3952;48.364;16.022;2023-08-21T14:52:12;33.60;90.40
7814;DHT22;3952;48.364;16.022;2023-08-21T14:54:39;33.60;90.20
7814;DHT22;3952;48.364;16.022;2023-08-21T14:57:06;33.60;90.30
7814;DHT22;3952;48.364;16.022;2023-08-21T14:59:35;33.60;89.10
7814;DHT22;3952;48.364;16.022;2023-08-21T15:02:02;33.60;87.90
7814;DHT22;3952;48.364;16.022;2023-08-21T15:04:29;33.60;90.20
7814;DHT22;3952;48.364;16.022;2023-08-21T15:06:57;33.50;92.80
7814;DHT22;3952;48.364;16.022;2023-08-21T15:09:24;33.50;94.50
7814;DHT22;3952;48.364;16.022;2023-08-21T15:11:51;33.50;94.70
7814;DHT22;3952;48.364;16.022;2023-08-21T15:14:18;33.50;95.00
7814;DHT22;3952;48.364;16.022;2023-08-21T15:16:47;33.40;94.40
7814;DHT22;3952;48.364;16.022;2023-08-21T15:19:14;33.40;94.00
7814;DHT22;3952;48.364;16.022;2023-08-21T15:21:42;33.40;93.70
7814;DHT22;3952;48.364;16.022;2023-08-21T15:24:09;33.30;94.10
7814;DHT22;3952;48.364;16.022;2023-08-21T15:26:36;33.30;95.60
7814;DHT22;3952;48.364;16.022;2023-08-21T15:29:03;33.30;96.10
7814;DHT22;3952;48.364;16.022;2023-08-21T15:31:30;33.20;94.40
7814;DHT22;3952;48.364;16.022;2023-08-21T15:33:59;33.10;93.00
7814;DHT22;3952;48.364;16.022;2023-08-21T15:36:26;33.10;91.10
7814;DHT22;3952;48.364;16.022;2023-08-21T15:38:53;33.10;91.00
7814;DHT22;3952;48.364;16.022;2023-08-21T15:41:21;33.10;91.90
7814;DHT22;3952;48.364;16.022;2023-08-21T15:43:48;33.10;91.60
7814;DHT22;3952;48.364;16.022;2023-08-21T15:46:15;33.10;91.10
7814;DHT22;3952;48.364;16.022;2023-08-21T15:48:42;33.20;90.60
7814;DHT22;3952;48.364;16.022;2023-08-21T15:51:11;33.20;90.30